Clear Sky Current Weather (METAR) For Bournemouth Airport

All times on the weather descriptions are local

Observed at 02:50 - (1 hr 11 mins ago)

Clear Sky

-3°C

Clear Sky
Clouds:
Wind: 340° at 02 knots
Visibility: Greater than 10km
QNH: 1040
Dew Point: -4°C
Runway in Use: Likely Runway 26

Sunrise Today: 06:40
Sunset Today: 17:56

Forecast Weather (TAF) For Bournemouth Airport

Issued at 00:00 - (26 days ago)


Runway in Use: Unable to determine, wind is clam

Forecast valid until 00:00 on Tuesday

METAR/TAF RAW METAR / TAF

EGHH 050250Z 34002KT CAVOK M03/M04 Q1040

Weather Widget

Put weather from any of our airports on your website with our weather widget.

Find Another Search

Airport Search


Please Wait Please Wait - Loading
Close
Close

Login

Username:

Password:

Remember Me:

Remember me on this computer

Forgotten your password? Get a reset password sent to your registered e-mail address

Close

User Private Message

Subject:

Message: